Archiv-/Tagesdaten

--Timestamp---	Temp	Chill	HIndex	Humid	Dewpt	Wind	HiWind	WindDir	Rain	Barom	        Solar	ET	UV
--------------	----	-----	------	-----	-----	----	------	-------	----	-----	        -----	--	--
20081013 00:05	9.3	9.3	9.3	89	7.6	0	0	157	0.00	1025.706	0	0.000	0
20081013 00:10	9.1	9.1	9.1	90	7.6	0	0	157	0.00	1025.740	0	0.000	0
20081013 00:15	9.1	9.1	9.1	90	7.5	0	0	157	0.00	1025.774	0	0.000	0
20081013 00:20	8.9	8.9	8.9	90	7.4	0	0	157	0.00	1025.740	0	0.000	0
20081013 00:25	8.8	8.8	8.8	90	7.3	0	0	157	0.00	1025.774	0	0.000	0
20081013 00:30	8.7	8.7	8.7	90	7.2	0	0	157	0.00	1025.808	0	0.000	0
20081013 00:35	8.6	8.6	8.6	90	7.1	0	0	157	0.00	1025.808	0	0.000	0
20081013 00:40	8.5	8.5	8.5	90	7.0	0	0	157	0.00	1025.706	0	0.000	0
20081013 00:45	8.4	8.4	8.4	91	7.1	0	0	157	0.00	1025.672	0	0.000	0
20081013 00:50	8.4	8.4	8.4	91	7.0	0	0	157	0.00	1025.672	0	0.000	0
20081013 00:55	8.4	8.4	8.4	91	7.0	0	3	157	0.00	1025.638	0	0.000	0
20081013 01:00	8.3	8.3	8.3	91	7.0	0	3	157	0.00	1025.638	0	0.000	0
20081013 01:05	8.3	8.3	8.3	91	6.9	0	3	157	0.00	1025.469	0	0.000	0
20081013 01:10	8.3	8.3	8.3	91	6.9	0	2	157	0.00	1025.401	0	0.000	0
20081013 01:15	8.2	8.2	8.2	91	6.8	0	0	157	0.00	1025.401	0	0.000	0
20081013 01:20	8.1	8.1	8.1	91	6.7	0	2	157	0.00	1025.435	0	0.000	0
20081013 01:25	8.1	8.1	8.1	92	6.8	0	3	157	0.00	1025.401	0	0.000	0
20081013 01:30	8.1	8.1	8.1	92	6.9	0	3	157	0.00	1025.266	0	0.000	0
20081013 01:35	8.1	8.1	8.1	92	6.8	0	2	157	0.00	1025.232	0	0.000	0
20081013 01:40	7.9	7.9	7.9	92	6.7	0	0	157	0.00	1025.232	0	0.000	0
20081013 01:45	7.9	7.9	7.9	92	6.7	0	0	157	0.00	1025.198	0	0.000	0
20081013 01:50	7.8	7.8	7.8	92	6.6	0	0	157	0.00	1025.198	0	0.000	0
20081013 01:55	7.8	7.8	7.8	92	6.6	0	2	157	0.00	1025.063	0	0.000	0
20081013 02:00	7.7	7.7	7.7	92	6.5	0	2	157	0.00	1025.029	0	0.000	0
20081013 02:05	7.6	7.6	7.6	92	6.4	0	3	157	0.00	1025.063	0	0.000	0
20081013 02:10	7.6	7.6	7.6	92	6.3	0	0	157	0.00	1025.029	0	0.000	0
20081013 02:15	7.4	7.4	7.4	92	6.2	0	0	157	0.00	1024.995	0	0.000	0
20081013 02:20	7.4	7.4	7.4	92	6.2	0	2	157	0.00	1025.063	0	0.000	0
20081013 02:25	7.4	7.4	7.4	92	6.2	0	2	157	0.00	1025.063	0	0.000	0
20081013 02:30	7.4	7.4	7.4	92	6.2	0	3	157	0.00	1025.029	0	0.000	0
20081013 02:35	7.4	7.4	7.4	92	6.2	0	5	157	0.00	1025.029	0	0.000	0
20081013 02:40	7.4	7.4	7.4	92	6.2	0	3	157	0.00	1025.029	0	0.000	0
20081013 02:45	7.3	7.3	7.3	92	6.1	0	0	157	0.00	1024.927	0	0.000	0
20081013 02:50	7.2	7.2	7.2	92	6.0	0	0	157	0.00	1024.859	0	0.000	0
20081013 02:55	7.0	7.0	7.0	92	5.8	0	0	157	0.00	1024.927	0	0.000	0
20081013 03:00	6.8	6.8	6.8	92	5.6	0	0	157	0.00	1024.927	0	0.000	0
20081013 03:05	6.7	6.7	6.7	92	5.5	0	0	157	0.00	1024.893	0	0.000	0
20081013 03:10	6.7	6.7	6.7	92	5.5	0	0	157	0.00	1024.995	0	0.000	0
20081013 03:15	6.6	6.6	6.6	92	5.3	0	0	157	0.00	1024.927	0	0.000	0
20081013 03:20	6.5	6.5	6.5	92	5.3	0	0	157	0.00	1024.927	0	0.000	0
20081013 03:25	6.4	6.4	6.4	92	5.2	0	0	157	0.00	1024.927	0	0.000	0
20081013 03:30	6.4	6.4	6.4	92	5.2	0	3	157	0.00	1024.859	0	0.000	0
20081013 03:35	6.4	6.4	6.4	92	5.2	0	3	157	0.00	1024.792	0	0.000	0
20081013 03:40	6.5	6.5	6.5	92	5.3	0	3	157	0.00	1024.724	0	0.000	0
20081013 03:45	6.4	6.4	6.4	92	5.2	0	0	157	0.00	1024.690	0	0.000	0
20081013 03:50	6.4	6.4	6.4	92	5.2	0	0	157	0.00	1024.589	0	0.000	0
20081013 03:55	6.3	6.3	6.3	92	5.1	0	0	157	0.20	1024.623	0	0.000	0
20081013 04:00	6.2	6.2	6.2	92	5.0	0	0	157	0.00	1024.589	0	0.000	0
20081013 04:05	6.0	6.0	6.0	92	4.8	0	0	157	0.00	1024.690	0	0.000	0
20081013 04:10	5.9	5.9	5.9	92	4.7	0	0	157	0.00	1024.623	0	0.000	0
20081013 04:15	5.9	5.9	5.9	92	4.7	0	0	157	0.00	1024.589	0	0.000	0
20081013 04:20	5.8	5.8	5.8	92	4.6	0	0	157	0.00	1024.656	0	0.000	0
20081013 04:25	5.8	5.8	5.8	92	4.6	0	0	157	0.00	1024.623	0	0.000	0
20081013 04:30	5.8	5.8	5.8	92	4.6	0	0	157	0.00	1024.487	0	0.000	0
20081013 04:35	5.9	5.9	5.9	92	4.7	0	0	157	0.00	1024.453	0	0.000	0
20081013 04:40	5.9	5.9	5.9	92	4.7	0	0	157	0.00	1024.419	0	0.000	0
20081013 04:45	5.9	5.9	5.9	92	4.7	0	0	157	0.00	1024.352	0	0.000	0
20081013 04:50	5.9	5.9	5.9	93	4.9	0	0	157	0.00	1024.318	0	0.000	0
20081013 04:55	5.9	5.9	5.9	93	4.9	0	0	157	0.00	1024.352	0	0.000	0
20081013 05:00	5.9	5.9	5.9	93	4.9	0	0	157	0.00	1024.318	0	0.000	0
20081013 05:05	5.9	5.9	5.9	93	4.9	0	0	157	0.00	1024.589	0	0.000	0
20081013 05:10	5.9	5.9	5.9	93	4.8	0	0	157	0.00	1024.656	0	0.000	0
20081013 05:15	5.7	5.7	5.7	92	4.5	0	2	157	0.00	1024.792	0	0.000	0
20081013 05:20	5.6	5.6	5.6	92	4.4	0	2	157	0.00	1024.792	0	0.000	0
20081013 05:25	5.4	5.4	5.4	92	4.2	0	3	157	0.00	1024.758	0	0.000	0
20081013 05:30	5.4	5.4	5.4	92	4.2	0	2	157	0.00	1024.724	0	0.000	0
20081013 05:35	5.3	5.3	5.3	93	4.3	0	0	157	0.00	1024.758	0	0.000	0
20081013 05:40	5.4	5.4	5.4	93	4.3	0	2	157	0.00	1024.724	0	0.000	0
20081013 05:45	5.3	5.3	5.3	93	4.3	0	0	157	0.00	1024.758	0	0.000	0
20081013 05:50	5.2	5.2	5.2	92	4.0	2	3	157	0.00	1024.656	0	0.000	0
20081013 05:55	5.2	5.2	5.2	92	4.0	2	3	157	0.00	1024.724	0	0.000	0
20081013 06:00	5.2	5.2	5.2	93	4.2	0	3	157	0.00	1024.623	0	0.000	0
20081013 06:05	5.2	5.2	5.2	93	4.2	0	2	157	0.00	1024.792	0	0.000	0
20081013 06:10	5.3	5.3	5.3	93	4.2	0	0	157	0.00	1024.758	0	0.000	0
20081013 06:15	5.3	5.3	5.3	93	4.3	0	0	157	0.00	1024.826	0	0.000	0
20081013 06:20	5.3	5.3	5.3	93	4.2	0	0	157	0.00	1024.656	0	0.000	0
20081013 06:25	5.3	5.3	5.3	93	4.2	0	0	157	0.00	1024.521	0	0.000	0
20081013 06:30	5.2	5.2	5.2	93	4.2	0	0	157	0.00	1024.589	0	0.000	0
20081013 06:35	5.2	5.2	5.2	93	4.2	0	0	157	0.00	1024.453	0	0.000	0
20081013 06:40	5.3	5.3	5.3	93	4.2	0	0	157	0.00	1024.352	0	0.000	0
20081013 06:45	5.3	5.3	5.3	93	4.3	0	0	157	0.00	1024.284	0	0.000	0
20081013 06:50	5.3	5.3	5.3	93	4.3	0	0	157	0.00	1024.182	0	0.000	0
20081013 06:55	5.4	5.4	5.4	93	4.4	0	0	157	0.00	1024.148	0	0.000	0
20081013 07:00	5.4	5.4	5.4	93	4.4	0	0	157	0.00	1024.182	0	0.000	0
20081013 07:05	5.4	5.4	5.4	93	4.4	0	0	157	0.00	1024.216	0	0.000	0
20081013 07:10	5.6	5.6	5.6	93	4.5	0	0	157	0.00	1024.182	0	0.000	0
20081013 07:15	5.6	5.6	5.6	93	4.5	0	2	157	0.00	1024.081	0	0.000	0
20081013 07:20	5.6	5.6	5.6	93	4.6	0	2	157	0.00	1024.148	0	0.000	0
20081013 07:25	5.6	5.6	5.6	93	4.6	0	0	157	0.00	1024.148	0	0.000	0
20081013 07:30	5.6	5.6	5.6	93	4.6	0	0	157	0.00	1024.115	0	0.000	0
20081013 07:35	5.6	5.6	5.6	93	4.5	0	0	157	0.00	1024.216	0	0.000	0
20081013 07:40	5.6	5.6	5.6	93	4.5	0	2	157	0.00	1024.182	5	0.000	0
20081013 07:45	5.6	5.6	5.6	93	4.5	0	0	157	0.00	1024.216	7	0.000	0
20081013 07:50	5.7	5.7	5.7	93	4.6	0	3	157	0.00	1024.182	7	0.000	0
20081013 07:55	5.7	5.7	5.7	93	4.6	0	2	157	0.00	1024.148	8	0.000	0
20081013 08:00	5.6	5.6	5.6	93	4.6	2	5	157	0.00	1024.250	10	0.000	0
20081013 08:05	5.6	5.6	5.6	93	4.6	2	6	157	0.00	1024.385	13	0.000	0
20081013 08:10	5.6	5.6	5.6	93	4.5	2	5	157	0.00	1024.385	18	0.000	0
20081013 08:15	5.7	5.7	5.7	93	4.6	0	2	157	0.00	1024.385	25	0.000	0
20081013 08:20	5.8	5.8	5.8	93	4.7	0	2	157	0.00	1024.284	31	0.000	0
20081013 08:25	6.0	6.0	6.0	93	5.0	0	3	157	0.00	1024.250	35	0.000	0
20081013 08:30	6.2	6.2	6.2	93	5.1	0	3	157	0.00	1024.250	35	0.000	0
20081013 08:35	6.3	6.3	6.3	93	5.2	0	0	157	0.00	1024.216	37	0.000	0
20081013 08:40	6.4	6.4	6.4	93	5.4	0	2	157	0.00	1024.148	41	0.000	0
20081013 08:45	6.6	6.6	6.6	93	5.5	0	2	157	0.00	1024.047	42	0.000	0
20081013 08:50	6.7	6.7	6.7	93	5.7	0	0	157	0.00	1024.115	44	0.000	0
20081013 08:55	7.0	7.0	7.0	93	5.9	0	3	157	0.00	1024.081	46	0.000	0
20081013 09:00	7.2	7.2	7.2	93	6.2	0	2	157	0.00	1024.047	44	0.020	0
20081013 09:05	7.4	7.4	7.4	92	6.2	2	5	157	0.00	1024.284	44	0.000	0
20081013 09:10	7.8	7.8	7.8	92	6.6	2	8	202	0.00	1024.284	45	0.000	0
20081013 09:15	8.0	8.0	8.0	92	6.8	0	5	202	0.00	1024.352	43	0.000	0
20081013 09:20	8.3	8.3	8.3	91	6.9	0	3	202	0.00	1024.352	42	0.000	0
20081013 09:25	8.4	8.4	8.4	91	7.1	0	0	202	0.00	1024.385	45	0.000	0
20081013 09:30	8.6	8.6	8.6	90	7.1	0	2	202	0.00	1024.419	48	0.000	0
20081013 09:35	8.7	8.7	8.7	90	7.2	0	0	202	0.00	1024.284	51	0.000	0
20081013 09:40	8.8	8.8	8.8	89	7.1	0	0	202	0.00	1024.216	53	0.000	0
20081013 09:45	9.1	9.1	9.1	88	7.2	0	2	202	0.00	1024.284	55	0.000	0
20081013 09:50	9.3	9.3	9.3	88	7.4	0	2	202	0.00	1024.284	58	0.000	1
20081013 09:55	9.6	9.6	9.6	87	7.5	0	2	202	0.00	1024.385	63	0.000	1
20081013 10:00	9.8	9.8	9.8	86	7.5	3	6	202	0.00	1024.352	65	0.020	1
20081013 10:05	9.9	9.9	9.9	86	7.7	0	3	202	0.00	1024.385	65	0.000	1
20081013 10:10	10.2	10.2	10.2	85	7.8	2	6	202	0.00	1024.487	66	0.000	1
20081013 10:15	10.3	10.3	10.3	85	7.9	2	6	202	0.00	1024.487	67	0.000	1
20081013 10:20	10.6	10.6	10.6	84	8.0	0	2	202	0.00	1024.487	67	0.000	1
20081013 10:25	10.7	10.7	10.7	84	8.1	0	0	202	0.00	1024.419	68	0.000	1
20081013 10:30	10.9	10.9	10.9	84	8.3	0	2	202	0.00	1024.284	69	0.000	1
20081013 10:35	11.1	11.1	11.1	84	8.5	0	2	202	0.00	1024.284	70	0.000	1
20081013 10:40	11.3	11.3	11.3	83	8.5	0	0	202	0.00	1024.284	71	0.000	1
20081013 10:45	11.4	11.4	11.4	83	8.7	0	2	202	0.00	1024.284	74	0.000	1
20081013 10:50	11.7	11.7	11.7	81	8.5	0	0	202	0.00	1024.216	76	0.000	1
20081013 10:55	11.9	11.9	11.9	79	8.4	0	2	202	0.00	1024.182	77	0.000	1
20081013 11:00	12.1	12.1	12.1	78	8.4	0	3	202	0.00	1024.081	80	0.020	1
20081013 11:05	12.4	12.4	12.4	77	8.5	0	3	202	0.00	1024.385	83	0.000	1
20081013 11:10	12.6	12.6	12.6	76	8.5	0	3	202	0.00	1024.250	85	0.000	1
20081013 11:15	12.9	12.9	12.9	73	8.2	2	5	225	0.00	1024.352	88	0.000	1
20081013 11:20	13.2	13.2	13.2	73	8.4	2	5	292	0.00	1024.250	92	0.000	1
20081013 11:25	13.4	13.4	13.4	73	8.6	0	3	292	0.00	1024.182	211	0.000	1
20081013 11:30	13.6	13.6	13.6	71	8.4	0	3	292	0.00	1024.182	365	0.000	2
20081013 11:35	13.8	13.8	13.8	71	8.6	0	2	292	0.00	1023.878	380	0.000	2
20081013 11:40	13.9	13.9	13.9	71	8.8	0	2	315	0.00	1023.810	387	0.000	2
20081013 11:45	14.2	14.2	14.2	72	9.2	0	2	315	0.00	1023.776	406	0.000	2
20081013 11:50	14.6	14.6	14.6	68	8.7	2	6	292	0.00	1023.742	420	0.000	2
20081013 11:55	14.9	14.9	14.9	69	9.3	0	5	292	0.00	1023.607	425	0.000	2
20081013 12:00	15.0	15.0	15.0	70	9.6	0	6	292	0.00	1023.607	424	0.120	2
20081013 12:05	15.2	15.2	15.2	69	9.6	2	6	292	0.00	1023.742	444	0.000	2
20081013 12:10	15.4	15.4	15.4	68	9.6	0	2	292	0.00	1023.674	456	0.000	2
20081013 12:15	15.5	15.5	15.5	67	9.4	2	6	292	0.00	1023.640	463	0.000	2
20081013 12:20	15.5	15.5	15.5	67	9.4	5	10	292	0.00	1023.640	466	0.000	2
20081013 12:25	15.6	15.6	15.6	68	9.7	5	10	292	0.00	1023.640	469	0.000	2
20081013 12:30	15.8	15.8	15.8	68	9.9	2	8	292	0.00	1023.505	476	0.000	2
20081013 12:35	16.1	16.1	16.1	67	9.9	2	5	315	0.00	1023.471	481	0.000	2
20081013 12:40	16.2	16.2	16.2	66	9.9	3	8	292	0.00	1023.370	482	0.000	3
20081013 12:45	16.4	16.4	16.4	66	10.1	2	6	292	0.00	1023.370	483	0.000	3
20081013 12:50	16.6	16.6	16.6	67	10.5	5	8	292	0.00	1023.336	483	0.000	3
20081013 12:55	16.8	16.8	16.8	65	10.2	2	6	315	0.00	1023.268	485	0.000	3
20081013 13:00	16.8	16.8	16.8	64	10.0	2	5	292	0.00	1023.234	486	0.200	3
20081013 13:05	16.8	16.8	16.8	65	10.2	0	3	0	0.00	1023.099	487	0.000	3
20081013 13:10	17.1	17.1	17.1	64	10.2	0	0	0	0.00	1022.963	489	0.000	3
20081013 13:15	17.3	17.3	17.3	64	10.5	0	5	315	0.00	1022.963	487	0.000	3
20081013 13:20	17.3	17.3	17.3	64	10.5	2	5	0	0.00	1022.895	484	0.000	2
20081013 13:25	17.5	17.5	17.5	64	10.6	0	2	0	0.00	1022.794	482	0.000	2
20081013 13:30	17.7	17.7	17.7	63	10.5	0	5	270	0.00	1022.625	479	0.000	2
20081013 13:35	17.8	17.8	17.8	64	10.9	2	6	292	0.00	1022.591	476	0.000	2
20081013 13:40	18.1	18.1	18.1	61	10.5	2	3	292	0.00	1022.489	473	0.000	2
20081013 13:45	18.4	18.4	18.4	60	10.5	2	6	292	0.00	1022.455	470	0.000	2
20081013 13:50	18.6	18.6	18.6	63	11.4	0	3	292	0.00	1022.455	464	0.000	2
20081013 13:55	18.8	18.8	18.8	59	10.6	3	8	292	0.00	1022.184	462	0.000	2
20081013 14:00	19.1	19.1	19.1	59	10.9	0	5	292	0.00	1022.150	457	0.220	2
20081013 14:05	19.2	19.2	19.2	58	10.7	2	5	292	0.00	1022.117	449	0.000	2
20081013 14:10	19.3	19.3	19.3	58	10.9	2	6	270	0.00	1022.083	445	0.000	2
20081013 14:15	19.6	19.6	19.6	57	10.8	0	3	45	0.00	1021.947	440	0.000	2
20081013 14:20	19.7	19.7	19.7	57	10.9	2	5	45	0.00	1021.913	436	0.000	2
20081013 14:25	19.8	19.8	19.8	54	10.2	2	6	225	0.00	1021.744	429	0.000	2
20081013 14:30	19.8	19.8	19.8	57	11.1	0	6	292	0.00	1021.575	420	0.000	2
20081013 14:35	19.8	19.8	19.8	57	11.1	0	3	292	0.00	1021.575	412	0.000	2
20081013 14:40	19.7	19.7	19.7	57	10.9	0	5	22	0.00	1021.609	404	0.000	2
20081013 14:45	19.6	19.6	19.6	57	10.9	2	5	337	0.00	1021.507	393	0.000	2
20081013 14:50	19.7	19.7	19.7	58	11.2	0	5	337	0.00	1021.405	387	0.000	2
20081013 14:55	19.8	19.8	19.8	57	11.1	0	3	337	0.00	1021.101	380	0.000	2
20081013 15:00	19.8	19.8	19.8	56	10.7	2	5	337	0.00	1020.965	370	0.200	2
20081013 15:05	19.7	19.7	19.7	56	10.7	2	5	22	0.00	1020.965	359	0.000	2
20081013 15:10	19.9	19.9	19.9	56	10.9	2	5	292	0.00	1020.999	347	0.000	2
20081013 15:15	20.1	20.1	20.1	57	11.3	0	3	22	0.00	1020.897	252	0.000	1
20081013 15:20	20.3	20.3	20.3	56	11.3	2	5	315	0.00	1020.796	194	0.000	1
20081013 15:25	20.4	20.4	20.4	53	10.5	2	6	315	0.00	1020.864	133	0.000	1
20081013 15:30	20.3	20.3	20.3	54	10.7	0	2	315	0.00	1020.796	152	0.000	1
20081013 15:35	20.2	20.2	20.2	55	10.9	2	5	292	0.00	1020.762	143	0.000	1
20081013 15:40	20.2	20.2	20.2	55	10.8	2	3	292	0.00	1020.931	117	0.000	1
20081013 15:45	20.2	20.2	20.2	56	11.1	2	6	292	0.00	1020.796	125	0.000	1
20081013 15:50	20.2	20.2	20.2	55	10.8	0	2	292	0.00	1020.830	112	0.000	1
20081013 15:55	20.1	20.1	20.1	57	11.3	0	3	292	0.00	1020.830	103	0.000	1
20081013 16:00	20.1	20.1	20.1	58	11.6	0	3	292	0.00	1020.762	99	0.100	1
20081013 16:05	20.1	20.1	20.1	56	11.0	0	2	292	0.00	1020.728	95	0.000	1
20081013 16:10	20.1	20.1	20.1	55	10.8	0	2	292	0.00	1020.694	94	0.000	1
20081013 16:15	20.1	20.1	20.1	55	10.7	0	2	292	0.00	1020.593	92	0.000	1
20081013 16:20	20.1	20.1	20.1	54	10.5	2	3	292	0.00	1020.423	91	0.000	1
20081013 16:25	20.1	20.1	20.1	55	10.8	2	3	292	0.00	1020.423	89	0.000	1
20081013 16:30	20.2	20.2	20.2	55	10.8	2	5	292	0.00	1020.356	83	0.000	0
20081013 16:35	20.1	20.1	20.1	55	10.8	3	5	22	0.00	1020.390	76	0.000	0
20081013 16:40	20.1	20.1	20.1	55	10.7	2	5	22	0.00	1020.423	88	0.000	0
20081013 16:45	20.0	20.0	20.0	55	10.7	2	6	0	0.00	1020.491	95	0.000	0
20081013 16:50	20.1	20.1	20.1	56	11.0	0	3	0	0.00	1020.356	85	0.000	0
20081013 16:55	20.1	20.1	20.1	56	11.0	0	2	0	0.00	1020.288	63	0.000	0
20081013 17:00	20.0	20.0	20.0	56	10.9	0	2	0	0.00	1020.288	55	0.040	0
20081013 17:05	19.9	19.9	19.9	57	11.1	0	0	0	0.00	1020.356	56	0.000	0
20081013 17:10	19.7	19.7	19.7	57	11.0	0	0	0	0.00	1020.254	51	0.000	0
20081013 17:15	19.7	19.7	19.7	58	11.2	0	0	0	0.00	1020.220	49	0.000	0
20081013 17:20	19.6	19.6	19.6	59	11.3	0	0	0	0.00	1020.152	49	0.000	0
20081013 17:25	19.4	19.4	19.4	60	11.5	0	2	0	0.00	1020.152	47	0.000	0
20081013 17:30	19.3	19.3	19.3	64	12.3	0	0	0	0.00	1020.119	45	0.000	0
20081013 17:35	19.2	19.2	19.2	63	12.0	0	0	0	0.00	1020.085	40	0.000	0
20081013 17:40	19.1	19.1	19.1	65	12.3	0	0	0	0.00	1020.254	38	0.000	0
20081013 17:45	18.8	18.8	18.8	65	12.1	0	0	0	0.00	1020.322	34	0.000	0
20081013 17:50	18.7	18.7	18.7	65	12.0	0	0	0	0.00	1020.322	32	0.000	0
20081013 17:55	18.6	18.6	18.6	66	12.1	0	0	0	0.00	1020.356	29	0.000	0
20081013 18:00	18.4	18.4	18.4	66	12.0	0	2	0	0.00	1020.288	26	0.020	0
20081013 18:05	18.3	18.3	18.3	68	12.3	0	2	0	0.00	1020.322	22	0.000	0
20081013 18:10	18.2	18.2	18.2	68	12.2	0	2	0	0.00	1020.322	18	0.000	0
20081013 18:15	18.0	18.0	18.0	69	12.2	0	0	0	0.00	1020.390	13	0.000	0
20081013 18:20	17.8	17.8	17.8	69	12.1	0	0	0	0.00	1020.390	9	0.000	0
20081013 18:25	17.7	17.7	17.7	70	12.1	0	0	0	0.00	1020.356	5	0.000	0
20081013 18:30	17.4	17.4	17.4	70	11.9	0	0	0	0.00	1020.457	0	0.000	0
20081013 18:35	17.2	17.2	17.2	70	11.7	0	0	0	0.00	1020.423	0	0.000	0
20081013 18:40	17.1	17.1	17.1	71	11.8	0	2	0	0.00	1020.390	0	0.000	0
20081013 18:45	16.8	16.8	16.8	71	11.5	0	3	22	0.00	1020.457	0	0.000	0
20081013 18:50	16.7	16.7	16.7	71	11.4	0	3	22	0.00	1020.457	0	0.000	0
20081013 18:55	16.7	16.7	16.7	72	11.6	0	2	90	0.00	1020.525	0	0.000	0
20081013 19:00	16.5	16.5	16.5	72	11.4	0	2	90	0.00	1020.525	0	0.000	0
20081013 19:05	16.4	16.4	16.4	73	11.6	0	2	90	0.00	1020.491	0	0.000	0
20081013 19:10	16.3	16.3	16.3	73	11.4	0	3	90	0.00	1020.660	0	0.000	0
20081013 19:15	16.2	16.2	16.2	74	11.5	0	0	90	0.00	1020.762	0	0.000	0
20081013 19:20	16.0	16.0	16.0	75	11.6	0	0	90	0.00	1020.762	0	0.000	0
20081013 19:25	15.8	15.8	15.8	75	11.4	0	0	90	0.00	1020.762	0	0.000	0
20081013 19:30	15.7	15.7	15.7	76	11.5	0	2	90	0.00	1020.762	0	0.000	0
20081013 19:35	15.6	15.6	15.6	76	11.3	0	2	112	0.00	1020.796	0	0.000	0
20081013 19:40	15.4	15.4	15.4	77	11.4	0	2	112	0.00	1020.728	0	0.000	0
20081013 19:45	15.3	15.3	15.3	77	11.3	0	2	112	0.00	1020.830	0	0.000	0
20081013 19:50	15.1	15.1	15.1	78	11.3	0	3	112	0.00	1020.931	0	0.000	0
20081013 19:55	15.0	15.0	15.0	78	11.2	0	2	112	0.00	1020.999	0	0.000	0
20081013 20:00	15.0	15.0	15.0	78	11.2	0	3	157	0.00	1020.965	0	0.020	0
20081013 20:05	15.0	15.0	15.0	78	11.2	0	2	180	0.00	1020.762	0	0.000	0
20081013 20:10	15.0	15.0	15.0	78	11.2	0	6	180	0.00	1020.830	0	0.000	0
20081013 20:15	15.0	15.0	15.0	78	11.2	0	5	180	0.00	1020.762	0	0.000	0
20081013 20:20	15.0	15.0	15.0	77	11.0	0	3	180	0.00	1020.762	0	0.000	0
20081013 20:25	15.0	15.0	15.0	77	11.0	0	5	180	0.00	1020.830	0	0.000	0
20081013 20:30	15.0	15.0	15.0	77	11.0	2	5	180	0.00	1020.931	0	0.000	0
20081013 20:35	14.8	14.8	14.8	77	10.8	2	5	180	0.00	1020.931	0	0.000	0
20081013 20:40	14.7	14.7	14.7	77	10.7	0	3	180	0.00	1020.965	0	0.000	0
20081013 20:45	14.6	14.6	14.6	77	10.6	0	2	180	0.00	1021.101	0	0.000	0
20081013 20:50	14.5	14.5	14.5	77	10.5	0	3	180	0.00	1021.202	0	0.000	0
20081013 20:55	14.4	14.4	14.4	77	10.5	0	3	180	0.00	1021.202	0	0.000	0
20081013 21:00	14.4	14.4	14.4	77	10.5	0	5	180	0.00	1021.202	0	0.020	0
20081013 21:05	14.4	14.4	14.4	77	10.4	2	5	180	0.00	1020.864	0	0.000	0
20081013 21:10	14.4	14.4	14.4	76	10.2	3	8	225	0.00	1020.897	0	0.000	0
20081013 21:15	14.4	14.4	14.4	76	10.2	2	8	225	0.00	1020.897	0	0.000	0
20081013 21:20	14.4	14.4	14.4	76	10.2	2	6	180	0.00	1020.931	0	0.000	0
20081013 21:25	14.4	14.4	14.4	76	10.2	3	10	180	0.00	1020.965	0	0.000	0
20081013 21:30	14.4	14.4	14.4	75	10.1	3	8	202	0.00	1021.033	0	0.000	0
20081013 21:35	14.4	14.4	14.4	75	10.0	2	6	202	0.00	1021.067	0	0.000	0
20081013 21:40	14.3	14.3	14.3	75	10.0	2	6	225	0.00	1021.101	0	0.000	0
20081013 21:45	14.3	14.3	14.3	76	10.1	3	8	225	0.00	1021.101	0	0.000	0
20081013 21:50	14.2	14.2	14.2	76	10.0	2	3	225	0.00	1021.134	0	0.000	0
20081013 21:55	14.2	14.2	14.2	76	10.0	2	8	225	0.00	1021.101	0	0.000	0
20081013 22:00	14.2	14.2	14.2	76	10.0	2	6	202	0.00	1021.134	0	0.020	0
20081013 22:05	14.2	14.2	14.2	76	10.0	2	6	180	0.00	1020.931	0	0.000	0
20081013 22:10	14.2	14.2	14.2	76	10.0	2	8	202	0.00	1020.999	0	0.000	0
20081013 22:15	14.2	14.2	14.2	76	10.0	0	5	202	0.00	1020.931	0	0.000	0
20081013 22:20	14.1	14.1	14.1	77	10.1	2	5	202	0.00	1020.999	0	0.000	0
20081013 22:25	14.1	14.1	14.1	77	10.1	0	3	202	0.00	1021.168	0	0.000	0
20081013 22:30	13.9	13.9	13.9	78	10.2	2	5	202	0.00	1021.168	0	0.000	0
20081013 22:35	13.9	13.9	13.9	78	10.1	2	5	202	0.00	1021.168	0	0.000	0
20081013 22:40	13.8	13.8	13.8	78	10.1	3	6	202	0.00	1021.202	0	0.000	0
20081013 22:45	13.8	13.8	13.8	79	10.3	2	6	202	0.00	1021.168	0	0.000	0
20081013 22:50	13.8	13.8	13.8	79	10.2	2	5	202	0.00	1021.202	0	0.000	0
20081013 22:55	13.7	13.7	13.7	79	10.1	3	6	202	0.00	1021.134	0	0.000	0
20081013 23:00	13.7	13.7	13.7	79	10.1	2	5	202	0.00	1021.101	0	0.020	0
20081013 23:05	13.8	13.8	13.8	79	10.2	0	5	202	0.00	1020.830	0	0.000	0
20081013 23:10	13.8	13.8	13.8	79	10.2	2	6	202	0.00	1020.830	0	0.000	0
20081013 23:15	13.8	13.8	13.8	79	10.3	2	6	202	0.00	1020.931	0	0.000	0
20081013 23:20	13.9	13.9	13.9	78	10.1	0	3	202	0.00	1020.897	0	0.000	0
20081013 23:25	13.9	13.9	13.9	79	10.3	0	2	202	0.00	1020.931	0	0.000	0
20081013 23:30	13.8	13.8	13.8	79	10.2	0	2	202	0.00	1020.897	0	0.000	0
20081013 23:35	13.7	13.7	13.7	79	10.1	0	5	180	0.00	1020.931	0	0.000	0
20081013 23:40	13.7	13.7	13.7	79	10.1	2	5	180	0.00	1020.897	0	0.000	0
20081013 23:45	13.7	13.7	13.7	79	10.1	3	8	202	0.00	1020.931	0	0.000	0
20081013 23:50	13.7	13.7	13.7	79	10.1	3	10	180	0.00	1020.897	0	0.000	0
20081013 23:55	13.7	13.7	13.7	79	10.1	2	6	202	0.00	1020.931	0	0.000	0
20081013 24:00	13.7	13.7	13.7	80	10.3	2	6	202	0.00	1020.931	0	0.020	0



Please note the license to use and transfer of this data:
http://creativecommons.org/licenses/by-nc-sa/3.0/deed.en

Bitte beachten sie die Lizenz zur Verwertung und Weitergabe der Daten:
http://creativecommons.org/licenses/by-nc-sa/3.0/deed.de

zurück zur Übersicht der Archivdaten (Monats und Tagesdaten)

Cookies helfen bei der Bereitstellung von Inhalten. Durch die Nutzung dieser Seiten erklärst du dich damit einverstanden, dass Cookies auf deinem Rechner gespeichert werden. Weitere Information